Climatologie pour Saint-Brevin les Pins
Jour • Résumé pour janvier 7, 2017 Système :  Métrique    Anglais   Mixte
« - 1 jour
+ 1 jour »
Jour Semaine Mois Année Personnalisé
  Maximum : Minimum : Moyenne :
Température sous abri : 6.2 °C -4.1 °C 0.5 °C
Point de rosée : 1.9 °C -5.0 °C -2.2 °C
Humidité : 97% 45% 84%
Vitesse du vent : 6.4km/h 0.0km/h 0.8km/h
Rafale : 9.7km/h - -
Direction - - ENE
Pression : 1037.5 hPa 1035.4 hPa -
Précipitations : 0.0 mm    
Historical Graphs
 
 
Tableau de données pour janvier 7, 2017
Heure Tempé Pt rosée Pression Vent Vitesse Rafale Humidité Taux pluie (/hr) Soleil
00:10 -2.7 °C -3.1 °C 1037.5 hPa ENE 1.6 km/h 3.2 km/h 97% 0.0 mm 0 W/m2
00:15 -2.4 °C -2.9 °C 1037.5 hPa ENE 1.6 km/h 4.8 km/h 97% 0.0 mm 0 W/m2
00:20 -2.6 °C -3.0 °C 1037.5 hPa NE 1.6 km/h 6.4 km/h 97% 0.0 mm 0 W/m2
00:25 -2.6 °C -3.0 °C 1037.5 hPa NE 6.4 km/h 6.4 km/h 97% 0.0 mm 0 W/m2
00:30 -2.6 °C -3.0 °C 1037.5 hPa NE 1.6 km/h 8.0 km/h 97% 0.0 mm 0 W/m2
00:35 -2.7 °C -3.1 °C 1037.5 hPa NE 1.6 km/h 8.0 km/h 97% 0.0 mm 0 W/m2
00:40 -2.6 °C -3.0 °C 1037.5 hPa Calm   4.8 km/h 97% 0.0 mm 0 W/m2
00:45 -2.6 °C -3.0 °C 1037.1 hPa Calm   3.2 km/h 97% 0.0 mm 0 W/m2
00:50 -2.6 °C -3.0 °C 1037.1 hPa NE 1.6 km/h 1.6 km/h 97% 0.0 mm 0 W/m2
00:55 -2.8 °C -3.2 °C 1037.1 hPa Calm   3.2 km/h 97% 0.0 mm 0 W/m2
01:00 -3.0 °C -3.5 °C 1037.1 hPa Calm   3.2 km/h 96% 0.0 mm 0 W/m2
01:05 -2.8 °C -3.2 °C 1037.1 hPa Calm   3.2 km/h 97% 0.0 mm 0 W/m2
01:10 -2.7 °C -3.1 °C 1037.1 hPa NE 1.6 km/h 3.2 km/h 97% 0.0 mm 0 W/m2
01:15 -2.9 °C -3.4 °C 1037.1 hPa NE 4.8 km/h 4.8 km/h 97% 0.0 mm 0 W/m2
01:20 -2.8 °C -3.2 °C 1036.8 hPa Calm   4.8 km/h 97% 0.0 mm 0 W/m2
01:25 -2.9 °C -3.4 °C 1036.8 hPa Calm   4.8 km/h 97% 0.0 mm 0 W/m2
01:30 -3.1 °C -3.5 °C 1036.8 hPa Calm   4.8 km/h 97% 0.0 mm 0 W/m2
01:35 -3.0 °C -3.4 °C 1036.8 hPa Calm   1.6 km/h 97% 0.0 mm 0 W/m2
01:40 -2.9 °C -3.4 °C 1036.8 hPa Calm   3.2 km/h 97% 0.0 mm 0 W/m2
01:45 -3.0 °C -3.4 °C 1036.8 hPa NE 1.6 km/h 6.4 km/h 97% 0.0 mm 0 W/m2
01:50 -2.8 °C -3.2 °C 1036.5 hPa Calm   6.4 km/h 97% 0.0 mm 0 W/m2
01:55 -2.9 °C -3.4 °C 1036.5 hPa Calm   3.2 km/h 97% 0.0 mm 0 W/m2
02:00 -3.2 °C -3.8 °C 1036.5 hPa Calm   3.2 km/h 96% 0.0 mm 0 W/m2
02:05 -3.3 °C -3.7 °C 1036.5 hPa Calm   3.2 km/h 97% 0.0 mm 0 W/m2
02:10 -3.3 °C -3.7 °C 1036.8 hPa Calm   1.6 km/h 97% 0.0 mm 0 W/m2
02:15 -2.8 °C -3.2 °C 1036.5 hPa Calm   3.2 km/h 97% 0.0 mm 0 W/m2
02:20 -2.7 °C -3.1 °C 1036.5 hPa NE 1.6 km/h 3.2 km/h 97% 0.0 mm 0 W/m2
02:25 -2.9 °C -3.4 °C 1036.5 hPa Calm   3.2 km/h 96% 0.0 mm 0 W/m2
02:30 -3.3 °C -3.8 °C 1036.5 hPa Calm   3.2 km/h 96% 0.0 mm 0 W/m2
02:35 -3.3 °C -3.8 °C 1036.5 hPa NE 1.6 km/h 3.2 km/h 96% 0.0 mm 0 W/m2
02:45 -3.3 °C -3.7 °C 1036.8 hPa NE 1.6 km/h 3.2 km/h 97% 0.0 mm 0 W/m2
02:50 -3.5 °C -4.0 °C 1036.8 hPa Calm   3.2 km/h 96% 0.0 mm 0 W/m2
02:55 -3.6 °C -4.1 °C 1036.8 hPa Calm   3.2 km/h 96% 0.0 mm 0 W/m2
03:00 -3.4 °C -3.8 °C 1036.8 hPa NE 1.6 km/h 8.0 km/h 97% 0.0 mm 0 W/m2
03:05 -3.2 °C -3.6 °C 1036.8 hPa NE 3.2 km/h 8.0 km/h 97% 0.0 mm 0 W/m2
03:10 -3.3 °C -3.8 °C 1036.8 hPa NE 3.2 km/h 4.8 km/h 96% 0.0 mm 0 W/m2
03:15 -3.2 °C -3.6 °C 1036.8 hPa NE 3.2 km/h 4.8 km/h 97% 0.0 mm 0 W/m2
03:20 -3.1 °C -3.5 °C 1036.8 hPa NE 1.6 km/h 4.8 km/h 97% 0.0 mm 0 W/m2
03:25 -2.9 °C -3.4 °C 1036.8 hPa NE 1.6 km/h 4.8 km/h 97% 0.0 mm 0 W/m2
03:30 -3.0 °C -3.4 °C 1036.8 hPa NE 1.6 km/h 3.2 km/h 97% 0.0 mm 0 W/m2
03:35 -3.0 °C -3.4 °C 1036.5 hPa NE 1.6 km/h 4.8 km/h 97% 0.0 mm 0 W/m2
03:40 -3.0 °C -3.4 °C 1036.5 hPa NE 1.6 km/h 4.8 km/h 97% 0.0 mm 0 W/m2
03:45 -3.2 °C -3.8 °C 1036.5 hPa Calm   4.8 km/h 96% 0.0 mm 0 W/m2
03:50 -3.3 °C -3.8 °C 1036.5 hPa Calm   1.6 km/h 96% 0.0 mm 0 W/m2
03:55 -3.2 °C -3.8 °C 1036.5 hPa Calm   1.6 km/h 96% 0.0 mm 0 W/m2
04:00 -3.1 °C -3.5 °C 1036.5 hPa Calm   1.6 km/h 97% 0.0 mm 0 W/m2
04:05 -3.1 °C -3.7 °C 1036.5 hPa Calm   1.6 km/h 96% 0.0 mm 0 W/m2
04:10 -3.2 °C -3.8 °C 1036.5 hPa NE 1.6 km/h 1.6 km/h 96% 0.0 mm 0 W/m2
04:15 -3.2 °C -3.8 °C 1036.5 hPa Calm   3.2 km/h 96% 0.0 mm 0 W/m2
04:20 -3.4 °C -4.0 °C 1036.5 hPa Calm   3.2 km/h 96% 0.0 mm 0 W/m2
04:25 -3.7 °C -4.3 °C 1036.5 hPa NE 1.6 km/h 3.2 km/h 96% 0.0 mm 0 W/m2
04:30 -3.5 °C -4.0 °C 1036.5 hPa Calm   3.2 km/h 96% 0.0 mm 0 W/m2
04:35 -3.6 °C -4.1 °C 1036.5 hPa Calm   3.2 km/h 96% 0.0 mm 0 W/m2
04:40 -3.4 °C -4.0 °C 1036.5 hPa Calm   1.6 km/h 96% 0.0 mm 0 W/m2
04:45 -3.6 °C -4.1 °C 1036.5 hPa Calm   1.6 km/h 96% 0.0 mm 0 W/m2
04:50 -3.7 °C -4.2 °C 1036.5 hPa Calm     96% 0.0 mm 0 W/m2
04:55 -3.8 °C -4.3 °C 1036.5 hPa Calm     96% 0.0 mm 0 W/m2
05:00 -3.6 °C -4.2 °C 1036.5 hPa Calm     96% 0.0 mm 0 W/m2
05:05 -3.6 °C -4.1 °C 1036.5 hPa Calm     96% 0.0 mm 0 W/m2
05:10 -3.7 °C -4.2 °C 1036.1 hPa Calm     96% 0.0 mm 0 W/m2
05:15 -3.7 °C -4.3 °C 1036.5 hPa Calm     96% 0.0 mm 0 W/m2
05:20 -3.8 °C -4.4 °C 1036.1 hPa Calm     96% 0.0 mm 0 W/m2
05:25 -3.9 °C -4.5 °C 1036.5 hPa Calm     96% 0.0 mm 0 W/m2
05:30 -3.9 °C -4.4 °C 1036.5 hPa Calm     96% 0.0 mm 0 W/m2
05:35 -3.9 °C -4.5 °C 1036.5 hPa Calm     96% 0.0 mm 0 W/m2
05:40 -3.9 °C -4.4 °C 1036.5 hPa Calm     96% 0.0 mm 0 W/m2
05:45 -4.0 °C -4.5 °C 1036.5 hPa Calm     96% 0.0 mm 0 W/m2
05:50 -4.1 °C -4.7 °C 1036.5 hPa Calm     96% 0.0 mm 0 W/m2
05:55 -4.1 °C -4.7 °C 1036.5 hPa Calm     96% 0.0 mm 0 W/m2
06:00 -4.1 °C -4.6 °C 1036.5 hPa Calm   1.6 km/h 96% 0.0 mm 0 W/m2
06:05 -3.9 °C -4.5 °C 1036.5 hPa Calm   1.6 km/h 96% 0.0 mm 0 W/m2
06:10 -3.8 °C -4.3 °C 1036.5 hPa Calm     96% 0.0 mm 0 W/m2
06:15 -3.8 °C -4.3 °C 1036.1 hPa Calm     96% 0.0 mm 0 W/m2
06:25 -3.7 °C -4.3 °C 1036.1 hPa Calm   1.6 km/h 96% 0.0 mm 0 W/m2
06:30 -3.7 °C -4.2 °C 1036.1 hPa Calm   1.6 km/h 96% 0.0 mm 0 W/m2
06:35 -3.4 °C -3.9 °C 1036.1 hPa NE 1.6 km/h 3.2 km/h 96% 0.0 mm 0 W/m2
06:40 -3.2 °C -3.8 °C 1036.1 hPa Calm   3.2 km/h 96% 0.0 mm 0 W/m2
06:45 -3.3 °C -3.8 °C 1036.1 hPa Calm   3.2 km/h 96% 0.0 mm 0 W/m2
06:50 -3.2 °C -3.8 °C 1036.1 hPa Calm   4.8 km/h 96% 0.0 mm 0 W/m2
06:55 -2.9 °C -3.5 °C 1036.1 hPa Calm   4.8 km/h 96% 0.0 mm 0 W/m2
07:00 -2.9 °C -3.5 °C 1036.1 hPa Calm   3.2 km/h 96% 0.0 mm 0 W/m2
07:05 -2.8 °C -3.4 °C 1036.1 hPa Calm   3.2 km/h 96% 0.0 mm 0 W/m2
07:10 -2.9 °C -3.5 °C 1036.5 hPa Calm   3.2 km/h 96% 0.0 mm 0 W/m2
07:15 -2.9 °C -3.5 °C 1036.5 hPa Calm   3.2 km/h 96% 0.0 mm 0 W/m2
07:20 -2.9 °C -3.5 °C 1036.5 hPa Calm   1.6 km/h 96% 0.0 mm 0 W/m2
07:25 -2.9 °C -3.5 °C 1036.5 hPa Calm   1.6 km/h 96% 0.0 mm 0 W/m2
07:30 -2.9 °C -3.4 °C 1036.5 hPa Calm   3.2 km/h 96% 0.0 mm 0 W/m2
07:35 -2.7 °C -3.2 °C 1036.5 hPa ENE 3.2 km/h 3.2 km/h 96% 0.0 mm 0 W/m2
07:40 -2.7 °C -3.3 °C 1036.5 hPa ENE 1.6 km/h 3.2 km/h 96% 0.0 mm 0 W/m2
07:45 -2.7 °C -3.2 °C 1036.5 hPa Calm   3.2 km/h 96% 0.0 mm 0 W/m2
07:50 -2.6 °C -3.2 °C 1036.5 hPa Calm   4.8 km/h 96% 0.0 mm 0 W/m2
07:55 -2.6 °C -3.1 °C 1036.5 hPa Calm   4.8 km/h 96% 0.0 mm 0 W/m2
08:00 -2.6 °C -3.1 °C 1036.5 hPa ENE 1.6 km/h 1.6 km/h 96% 0.0 mm 0 W/m2
08:05 -2.3 °C -2.9 °C 1036.5 hPa ENE 1.6 km/h 4.8 km/h 96% 0.0 mm 0 W/m2
08:10 -2.3 °C -3.0 °C 1036.5 hPa ENE 1.6 km/h 4.8 km/h 95% 0.0 mm 0 W/m2
08:15 -2.2 °C -2.9 °C 1036.5 hPa Calm   4.8 km/h 95% 0.0 mm 0 W/m2
08:20 -2.3 °C -3.0 °C 1036.5 hPa Calm   3.2 km/h 95% 0.0 mm 0 W/m2
08:25 -2.4 °C -3.1 °C 1036.5 hPa Calm   3.2 km/h 95% 0.0 mm 0 W/m2
08:30 -2.5 °C -3.2 °C 1036.5 hPa East 3.2 km/h 4.8 km/h 95% 0.0 mm 0 W/m2
08:35 -2.6 °C -3.3 °C 1036.8 hPa Calm   4.8 km/h 95% 0.0 mm 0 W/m2
08:40 -2.7 °C -3.4 °C 1036.8 hPa Calm   4.8 km/h 95% 0.0 mm 0 W/m2
08:45 -2.8 °C -3.5 °C 1036.8 hPa Calm   4.8 km/h 95% 0.0 mm 0 W/m2
08:50 -2.8 °C -3.5 °C 1036.8 hPa East 1.6 km/h 4.8 km/h 95% 0.0 mm 0 W/m2
08:55 -2.8 °C -3.5 °C 1036.8 hPa Calm   4.8 km/h 95% 0.0 mm 0 W/m2
09:00 -2.8 °C -3.5 °C 1036.8 hPa Calm   4.8 km/h 95% 0.0 mm 5 W/m2
09:05 -2.8 °C -3.5 °C 1037.1 hPa Calm   1.6 km/h 95% 0.0 mm 7 W/m2
09:10 -2.7 °C -3.4 °C 1037.1 hPa East 3.2 km/h 4.8 km/h 95% 0.0 mm 12 W/m2
09:15 -2.7 °C -3.4 °C 1037.1 hPa Calm   6.4 km/h 95% 0.0 mm 18 W/m2
09:20 -2.4 °C -3.1 °C 1037.1 hPa ENE 3.2 km/h 6.4 km/h 95% 0.0 mm 19 W/m2
09:25 -2.3 °C -3.0 °C 1037.1 hPa Calm   6.4 km/h 95% 0.0 mm 19 W/m2
09:30 -2.4 °C -3.3 °C 1037.1 hPa Calm   4.8 km/h 94% 0.0 mm 21 W/m2
09:35 -2.4 °C -3.1 °C 1037.1 hPa Calm   3.2 km/h 95% 0.0 mm 25 W/m2
09:40 -2.3 °C -3.0 °C 1037.1 hPa Calm   3.2 km/h 95% 0.0 mm 30 W/m2
09:45 -2.3 °C -3.0 °C 1037.1 hPa Calm   3.2 km/h 95% 0.0 mm 33 W/m2
09:50 -2.1 °C -2.7 °C 1037.1 hPa Calm   3.2 km/h 95% 0.0 mm 37 W/m2
09:55 -1.9 °C -2.6 °C 1037.1 hPa Calm   3.2 km/h 95% 0.0 mm 42 W/m2
10:00 -1.8 °C -2.6 °C 1037.1 hPa Calm   1.6 km/h 94% 0.0 mm 46 W/m2
10:10 -1.2 °C -2.2 °C 1037.1 hPa East 4.8 km/h 4.8 km/h 93% 0.0 mm 53 W/m2
10:15 -1.1 °C -2.2 °C 1037.1 hPa East 3.2 km/h 8.0 km/h 92% 0.0 mm 56 W/m2
10:20 -0.9 °C -2.1 °C 1037.1 hPa East 3.2 km/h 8.0 km/h 92% 0.0 mm 58 W/m2
10:25 -0.9 °C -2.2 °C 1037.1 hPa Calm   8.0 km/h 91% 0.0 mm 60 W/m2
10:30 -0.8 °C -2.1 °C 1037.1 hPa East 1.6 km/h 4.8 km/h 91% 0.0 mm 83 W/m2
10:35 -0.6 °C -1.9 °C 1037.1 hPa Calm   3.2 km/h 91% 0.0 mm 141 W/m2
10:40 -0.4 °C -1.8 °C 1037.1 hPa East 3.2 km/h 4.8 km/h 90% 0.0 mm 188 W/m2
10:45 -0.3 °C -1.7 °C 1037.1 hPa SE 6.4 km/h 6.4 km/h 90% 0.0 mm 197 W/m2
10:50 -0.2 °C -2.0 °C 1037.5 hPa SE 3.2 km/h 6.4 km/h 88% 0.0 mm 197 W/m2
10:55 0.0 °C -1.8 °C 1037.5 hPa Calm   4.8 km/h 88% 0.0 mm 200 W/m2
11:00 0.1 °C -2.0 °C 1037.1 hPa Calm   3.2 km/h 86% 0.0 mm 204 W/m2
11:05 0.2 °C -2.0 °C 1037.1 hPa SE 3.2 km/h 3.2 km/h 85% 0.0 mm 213 W/m2
11:10 0.4 °C -1.9 °C 1037.1 hPa Calm   3.2 km/h 84% 0.0 mm 206 W/m2
11:15 0.7 °C -1.6 °C 1037.5 hPa SE 1.6 km/h 3.2 km/h 85% 0.0 mm 214 W/m2
11:20 0.7 °C -1.8 °C 1037.5 hPa Calm   6.4 km/h 83% 0.0 mm 218 W/m2
11:25 0.9 °C -1.5 °C 1037.5 hPa ENE 3.2 km/h 6.4 km/h 84% 0.0 mm 206 W/m2
11:35 1.1 °C -1.5 °C 1037.5 hPa ENE 4.8 km/h 6.4 km/h 83% 0.0 mm 234 W/m2
11:40 1.2 °C -1.4 °C 1037.5 hPa Calm   4.8 km/h 83% 0.0 mm 244 W/m2
11:45 1.3 °C -1.6 °C 1037.5 hPa ENE 4.8 km/h 6.4 km/h 81% 0.0 mm 251 W/m2
11:50 1.4 °C -1.6 °C 1037.1 hPa Calm   6.4 km/h 80% 0.0 mm 248 W/m2
11:55 1.6 °C -1.4 °C 1037.1 hPa Calm   4.8 km/h 81% 0.0 mm 257 W/m2
12:00 1.9 °C -1.5 °C 1037.1 hPa Calm   6.4 km/h 78% 0.0 mm 230 W/m2
12:05 1.8 °C -2.0 °C 1037.1 hPa ENE 1.6 km/h 6.4 km/h 76% 0.0 mm 209 W/m2
12:10 1.8 °C -1.6 °C 1037.1 hPa ENE 1.6 km/h 3.2 km/h 78% 0.0 mm 207 W/m2
12:15 2.2 °C -2.0 °C 1037.1 hPa ENE 1.6 km/h 4.8 km/h 74% 0.0 mm 229 W/m2
12:20 2.2 °C -2.4 °C 1037.1 hPa ENE 1.6 km/h 4.8 km/h 72% 0.0 mm 223 W/m2
12:25 2.6 °C -1.8 °C 1037.1 hPa ENE 4.8 km/h 4.8 km/h 73% 0.0 mm 251 W/m2
12:30 2.6 °C -2.6 °C 1037.1 hPa ENE 3.2 km/h 4.8 km/h 69% 0.0 mm 229 W/m2
12:35 2.7 °C -1.7 °C 1037.1 hPa North 3.2 km/h 4.8 km/h 73% 0.0 mm 248 W/m2
12:40 2.8 °C -1.9 °C 1036.8 hPa Calm   4.8 km/h 71% 0.0 mm 248 W/m2
12:45 2.8 °C -2.2 °C 1036.8 hPa NE 1.6 km/h 6.4 km/h 70% 0.0 mm 244 W/m2
12:50 3.1 °C -1.8 °C 1036.8 hPa Calm   6.4 km/h 70% 0.0 mm 237 W/m2
12:55 3.1 °C -1.8 °C 1036.8 hPa NNE 3.2 km/h 6.4 km/h 70% 0.0 mm 241 W/m2
13:00 3.3 °C -2.3 °C 1036.8 hPa NNE 4.8 km/h 8.0 km/h 67% 0.0 mm 237 W/m2
13:05 3.4 °C -2.1 °C 1036.8 hPa Calm   8.0 km/h 67% 0.0 mm 225 W/m2
13:10 3.7 °C -2.0 °C 1036.8 hPa NNE 3.2 km/h 6.4 km/h 66% 0.0 mm 276 W/m2
13:15 4.0 °C -1.8 °C 1036.5 hPa NE 3.2 km/h 6.4 km/h 66% 0.0 mm 292 W/m2
13:20 3.8 °C -1.5 °C 1036.5 hPa NE 1.6 km/h 6.4 km/h 68% 0.0 mm 292 W/m2
13:25 3.9 °C -1.1 °C 1036.5 hPa Calm   4.8 km/h 70% 0.0 mm 283 W/m2
13:30 4.2 °C -1.2 °C 1036.5 hPa Calm   4.8 km/h 68% 0.0 mm 281 W/m2
13:35 3.9 °C -1.6 °C 1036.5 hPa NNE 1.6 km/h 4.8 km/h 67% 0.0 mm 290 W/m2
13:40 4.1 °C -1.3 °C 1036.1 hPa Calm   4.8 km/h 68% 0.0 mm 295 W/m2
13:45 4.2 °C -2.0 °C 1036.1 hPa Calm   4.8 km/h 64% 0.0 mm 301 W/m2
13:50 4.6 °C -1.8 °C 1036.1 hPa Calm   3.2 km/h 63% 0.0 mm 299 W/m2
13:55 4.6 °C -2.3 °C 1036.1 hPa Calm   3.2 km/h 61% 0.0 mm 299 W/m2
14:00 4.8 °C -4.0 °C 1035.8 hPa NNE 1.6 km/h 1.6 km/h 53% 0.0 mm 297 W/m2
14:05 5.3 °C -3.5 °C 1035.8 hPa Calm   3.2 km/h 53% 0.0 mm 294 W/m2
14:10 5.2 °C -3.4 °C 1035.8 hPa Calm   3.2 km/h 54% 0.0 mm 288 W/m2
14:15 5.3 °C -2.8 °C 1035.8 hPa NNE 1.6 km/h 3.2 km/h 56% 0.0 mm 283 W/m2
14:20 5.6 °C -2.3 °C 1035.8 hPa NE 4.8 km/h 4.8 km/h 57% 0.0 mm 258 W/m2
14:25 5.7 °C -3.7 °C 1035.8 hPa ENE 4.8 km/h 6.4 km/h 51% 0.0 mm 253 W/m2
14:30 5.6 °C -3.0 °C 1035.8 hPa ENE 4.8 km/h 8.0 km/h 54% 0.0 mm 253 W/m2
14:35 5.9 °C -3.2 °C 1035.8 hPa Calm   8.0 km/h 52% 0.0 mm 264 W/m2
14:40 6.2 °C -2.7 °C 1035.8 hPa ENE 3.2 km/h 8.0 km/h 53% 0.0 mm 258 W/m2
14:45 6.2 °C -2.0 °C 1035.8 hPa ENE 3.2 km/h 9.7 km/h 56% 0.0 mm 255 W/m2
14:50 6.1 °C -5.0 °C 1035.8 hPa NE 3.2 km/h 9.7 km/h 45% 0.0 mm 243 W/m2
14:55 5.9 °C -4.3 °C 1035.8 hPa NNE 4.8 km/h 8.0 km/h 48% 0.0 mm 232 W/m2
15:00 5.8 °C -4.6 °C 1035.4 hPa Calm   8.0 km/h 47% 0.0 mm 232 W/m2
15:05 5.9 °C -4.5 °C 1035.4 hPa North 3.2 km/h 6.4 km/h 47% 0.0 mm 227 W/m2
15:10 6.0 °C -3.4 °C 1035.4 hPa NE 3.2 km/h 8.0 km/h 51% 0.0 mm 216 W/m2
15:15 6.1 °C -3.3 °C 1035.4 hPa North 6.4 km/h 8.0 km/h 51% 0.0 mm 206 W/m2
15:20 6.1 °C -2.5 °C 1035.4 hPa NNE 3.2 km/h 9.7 km/h 54% 0.0 mm 188 W/m2
15:25 6.1 °C -1.8 °C 1035.4 hPa NNE 1.6 km/h 9.7 km/h 57% 0.0 mm 193 W/m2
15:30 6.1 °C -3.3 °C 1035.4 hPa North 4.8 km/h 8.0 km/h 51% 0.0 mm 185 W/m2
15:35 6.2 °C -2.7 °C 1035.4 hPa North 3.2 km/h 8.0 km/h 53% 0.0 mm 178 W/m2
15:40 6.2 °C -2.2 °C 1035.4 hPa North 1.6 km/h 6.4 km/h 55% 0.0 mm 169 W/m2
15:45 6.1 °C -2.8 °C 1035.4 hPa North 1.6 km/h 4.8 km/h 53% 0.0 mm 156 W/m2
15:50 5.9 °C -3.0 °C 1035.4 hPa Calm   4.8 km/h 53% 0.0 mm 120 W/m2
15:55 5.8 °C -2.6 °C 1035.4 hPa Calm   1.6 km/h 55% 0.0 mm 72 W/m2
16:00 5.8 °C -2.8 °C 1035.4 hPa North 1.6 km/h 1.6 km/h 54% 0.0 mm 42 W/m2
16:05 5.8 °C -3.0 °C 1035.4 hPa Calm   3.2 km/h 53% 0.0 mm 77 W/m2
16:10 5.8 °C -1.9 °C 1035.4 hPa North 1.6 km/h 4.8 km/h 58% 0.0 mm 105 W/m2
16:15 5.7 °C -2.2 °C 1035.4 hPa North 3.2 km/h 4.8 km/h 57% 0.0 mm 69 W/m2
16:20 5.5 °C -2.1 °C 1035.4 hPa North 1.6 km/h 4.8 km/h 58% 0.0 mm 60 W/m2
16:25 5.3 °C -2.0 °C 1035.4 hPa Calm   4.8 km/h 59% 0.0 mm 74 W/m2
16:30 5.1 °C -2.0 °C 1035.4 hPa Calm   4.8 km/h 60% 0.0 mm 65 W/m2
16:35 5.1 °C -1.9 °C 1035.4 hPa Calm   4.8 km/h 61% 0.0 mm 25 W/m2
16:45 4.7 °C -1.8 °C 1035.4 hPa Calm   3.2 km/h 63% 0.0 mm 23 W/m2
16:50 4.3 °C -1.7 °C 1035.4 hPa Calm   3.2 km/h 65% 0.0 mm 21 W/m2
16:55 4.2 °C -1.8 °C 1035.4 hPa Calm     65% 0.0 mm 19 W/m2
17:00 4.0 °C -1.8 °C 1035.4 hPa Calm     66% 0.0 mm 18 W/m2
17:05 3.8 °C -1.8 °C 1035.4 hPa Calm     67% 0.0 mm 14 W/m2
17:10 3.4 °C -1.7 °C 1035.4 hPa Calm     69% 0.0 mm 14 W/m2
17:15 3.3 °C -1.5 °C 1035.4 hPa Calm     71% 0.0 mm 12 W/m2
17:20 3.1 °C -1.5 °C 1035.4 hPa Calm     72% 0.0 mm 11 W/m2
17:25 2.8 °C -1.4 °C 1035.4 hPa Calm     74% 0.0 mm 9 W/m2
17:30 2.8 °C -1.2 °C 1035.8 hPa Calm   1.6 km/h 75% 0.0 mm 7 W/m2
17:35 2.9 °C -1.3 °C 1035.4 hPa Calm   1.6 km/h 74% 0.0 mm 5 W/m2
17:40 2.7 °C -1.3 °C 1035.4 hPa Calm   1.6 km/h 75% 0.0 mm 0 W/m2
17:45 2.7 °C -1.3 °C 1035.8 hPa Calm   1.6 km/h 75% 0.0 mm 0 W/m2
17:50 2.7 °C -1.3 °C 1035.8 hPa Calm   1.6 km/h 75% 0.0 mm 0 W/m2
17:55 2.7 °C -1.3 °C 1035.4 hPa Calm   1.6 km/h 75% 0.0 mm 0 W/m2
18:00 2.6 °C -1.0 °C 1035.8 hPa Calm   1.6 km/h 77% 0.0 mm 0 W/m2
18:10 2.1 °C -1.4 °C 1035.8 hPa Calm     78% 0.0 mm 0 W/m2
18:15 1.8 °C -1.4 °C 1035.8 hPa Calm     79% 0.0 mm 0 W/m2
18:20 1.6 °C -1.4 °C 1035.8 hPa Calm     81% 0.0 mm 0 W/m2
18:25 1.8 °C -1.1 °C 1035.8 hPa Calm     81% 0.0 mm 0 W/m2
18:30 2.1 °C -0.8 °C 1035.8 hPa Calm   1.6 km/h 81% 0.0 mm 0 W/m2
18:35 2.3 °C -0.6 °C 1035.8 hPa Calm   1.6 km/h 81% 0.0 mm 0 W/m2
18:40 2.2 °C -0.5 °C 1035.8 hPa Calm     82% 0.0 mm 0 W/m2
18:45 2.3 °C -0.3 °C 1035.8 hPa Calm     83% 0.0 mm 0 W/m2
18:50 2.6 °C -0.3 °C 1035.8 hPa Calm     81% 0.0 mm 0 W/m2
18:55 2.7 °C -0.3 °C 1035.8 hPa Calm     81% 0.0 mm 0 W/m2
19:00 2.6 °C -0.3 °C 1035.8 hPa Calm     81% 0.0 mm 0 W/m2
19:05 2.4 °C -0.5 °C 1035.8 hPa Calm   1.6 km/h 81% 0.0 mm 0 W/m2
19:15 2.1 °C -0.9 °C 1035.8 hPa Calm   1.6 km/h 81% 0.0 mm 0 W/m2
19:20 1.7 °C -1.2 °C 1035.8 hPa Calm     81% 0.0 mm 0 W/m2
19:25 1.3 °C -1.2 °C 1035.8 hPa Calm     83% 0.0 mm 0 W/m2
19:30 1.3 °C -1.1 °C 1035.8 hPa Calm     84% 0.0 mm 0 W/m2
19:35 1.1 °C -1.3 °C 1035.8 hPa Calm     84% 0.0 mm 0 W/m2
19:40 1.3 °C -1.0 °C 1035.8 hPa Calm     85% 0.0 mm 0 W/m2
19:45 1.3 °C -1.0 °C 1035.8 hPa Calm     85% 0.0 mm 0 W/m2
19:50 1.3 °C -0.9 °C 1035.8 hPa Calm     85% 0.0 mm 0 W/m2
19:55 1.3 °C -0.8 °C 1035.8 hPa Calm     86% 0.0 mm 0 W/m2
20:00 1.5 °C -0.6 °C 1035.8 hPa Calm     86% 0.0 mm 0 W/m2
20:05 1.6 °C -0.5 °C 1035.8 hPa Calm     86% 0.0 mm 0 W/m2
20:10 1.6 °C -0.5 °C 1035.8 hPa Calm     86% 0.0 mm 0 W/m2
20:15 1.8 °C -0.4 °C 1035.8 hPa Calm     85% 0.0 mm 0 W/m2
20:20 2.1 °C -0.3 °C 1035.8 hPa Calm     84% 0.0 mm 0 W/m2
20:25 2.3 °C -0.4 °C 1035.4 hPa Calm   1.6 km/h 82% 0.0 mm 0 W/m2
20:30 2.4 °C -0.4 °C 1035.4 hPa Calm   1.6 km/h 82% 0.0 mm 0 W/m2
20:40 2.5 °C -0.1 °C 1035.8 hPa Calm   1.6 km/h 83% 0.0 mm 0 W/m2
20:45 2.5 °C 0.1 °C 1035.8 hPa Calm     84% 0.0 mm 0 W/m2
20:50 2.5 °C 0.1 °C 1035.8 hPa Calm     84% 0.0 mm 0 W/m2
20:55 2.8 °C 0.2 °C 1035.8 hPa Calm   1.6 km/h 83% 0.0 mm 0 W/m2
21:00 2.8 °C 0.4 °C 1035.8 hPa Calm   1.6 km/h 84% 0.0 mm 0 W/m2
21:05 2.9 °C 0.5 °C 1035.8 hPa Calm     84% 0.0 mm 0 W/m2
21:10 2.9 °C 0.5 °C 1035.8 hPa Calm     84% 0.0 mm 0 W/m2
21:15 3.0 °C 0.4 °C 1035.8 hPa Calm     83% 0.0 mm 0 W/m2
21:20 3.1 °C 0.5 °C 1035.8 hPa Calm     83% 0.0 mm 0 W/m2
21:25 3.3 °C 0.7 °C 1035.8 hPa Calm     83% 0.0 mm 0 W/m2
21:30 3.4 °C 0.4 °C 1035.8 hPa Calm     81% 0.0 mm 0 W/m2
21:35 3.5 °C 0.5 °C 1035.8 hPa Calm     81% 0.0 mm 0 W/m2
21:40 3.5 °C 0.5 °C 1035.8 hPa Calm     81% 0.0 mm 0 W/m2
21:45 3.6 °C 0.5 °C 1035.8 hPa Calm     80% 0.0 mm 0 W/m2
21:50 3.7 °C 0.5 °C 1035.8 hPa Calm   1.6 km/h 80% 0.0 mm 0 W/m2
21:55 3.7 °C 0.7 °C 1035.8 hPa Calm   1.6 km/h 81% 0.0 mm 0 W/m2
22:00 3.7 °C 0.1 °C 1035.8 hPa Calm   1.6 km/h 77% 0.0 mm 0 W/m2
22:05 3.7 °C 0.1 °C 1035.8 hPa Calm   1.6 km/h 77% 0.0 mm 0 W/m2
22:10 3.7 °C 0.4 °C 1035.8 hPa Calm     79% 0.0 mm 0 W/m2
22:15 3.6 °C 0.8 °C 1035.8 hPa Calm     82% 0.0 mm 0 W/m2
22:20 3.6 °C 0.7 °C 1035.8 hPa Calm     81% 0.0 mm 0 W/m2
22:25 3.7 °C 1.0 °C 1035.8 hPa Calm     83% 0.0 mm 0 W/m2
22:30 3.6 °C 1.2 °C 1035.8 hPa Calm     84% 0.0 mm 0 W/m2
22:35 3.5 °C 1.0 °C 1035.8 hPa Calm     84% 0.0 mm 0 W/m2
22:40 3.2 °C 0.6 °C 1035.8 hPa Calm     83% 0.0 mm 0 W/m2
22:45 3.2 °C 0.4 °C 1035.8 hPa Calm     82% 0.0 mm 0 W/m2
22:50 3.2 °C 0.6 °C 1035.8 hPa Calm     83% 0.0 mm 0 W/m2
22:55 3.2 °C 0.7 °C 1035.8 hPa Calm     84% 0.0 mm 0 W/m2
23:00 3.2 °C 0.8 °C 1035.8 hPa Calm     84% 0.0 mm 0 W/m2
23:05 3.3 °C 1.0 °C 1035.8 hPa Calm     85% 0.0 mm 0 W/m2
23:10 3.3 °C 1.0 °C 1035.8 hPa Calm     85% 0.0 mm 0 W/m2
23:15 3.3 °C 1.1 °C 1035.8 hPa Calm     85% 0.0 mm 0 W/m2
23:20 3.4 °C 1.3 °C 1035.8 hPa Calm     86% 0.0 mm 0 W/m2
23:25 3.4 °C 1.3 °C 1035.8 hPa Calm     86% 0.0 mm 0 W/m2
23:30 3.5 °C 1.4 °C 1035.8 hPa Calm     86% 0.0 mm 0 W/m2
23:35 3.6 °C 1.6 °C 1035.8 hPa Calm     87% 0.0 mm 0 W/m2
23:40 3.7 °C 1.5 °C 1035.8 hPa Calm     86% 0.0 mm 0 W/m2
23:45 3.7 °C 1.7 °C 1035.8 hPa Calm     87% 0.0 mm 0 W/m2
23:50 3.7 °C 1.9 °C 1035.4 hPa Calm     88% 0.0 mm 0 W/m2
23:55 3.8 °C 1.7 °C 1035.4 hPa Calm   1.6 km/h 86% 0.0 mm 0 W/m2